createdAt,value
2019-03-31T06:45:50.330Z,49.33
2019-03-31T06:48:20.469Z,48.38
2019-03-31T06:50:50.587Z,40.43
2019-03-31T06:53:20.576Z,50.63
2019-03-31T06:55:50.624Z,38.10
2019-03-31T06:58:20.585Z,37.85
2019-03-31T07:00:50.691Z,39.15
2019-03-31T07:03:20.656Z,36.10
2019-03-31T07:05:50.661Z,33.02
2019-03-31T07:08:20.905Z,34.83
2019-03-31T07:10:51.013Z,31.97
2019-03-31T07:13:21.098Z,28.05
2019-03-31T07:15:51.153Z,28.10
2019-03-31T07:18:21.493Z,27.58
2019-03-31T07:20:51.540Z,26.55
2019-03-31T07:23:21.698Z,35.13
2019-03-31T07:25:51.732Z,25.32
2019-03-31T07:28:22.057Z,27.58
2019-03-31T07:30:52.094Z,23.15
2019-03-31T07:33:22.397Z,17.92
2019-03-31T07:35:52.394Z,17.75
2019-03-31T07:38:22.494Z,21.87
2019-03-31T07:40:52.664Z,17.05
2019-03-31T07:43:24.100Z,20.68
2019-03-31T07:45:55.805Z,17.40
2019-03-31T07:48:26.486Z,18.30
2019-03-31T07:50:56.912Z,15.53
2019-03-31T07:53:27.031Z,16.67
2019-03-31T07:55:58.685Z,14.33
2019-03-31T07:58:29.146Z,16.40
2019-03-31T08:00:59.785Z,12.07
2019-03-31T08:03:30.268Z,11.70
2019-03-31T08:06:00.693Z,15.50
2019-03-31T08:08:32.451Z,12.37
2019-03-31T08:11:02.776Z,20.70
2019-03-31T08:13:33.200Z,9.88
2019-03-31T08:16:03.529Z,9.38
2019-03-31T08:18:33.847Z,11.95
2019-03-31T08:21:03.963Z,9.65
2019-03-31T08:23:35.629Z,12.98
2019-03-31T08:26:07.068Z,11.97
2019-03-31T08:28:37.496Z,11.28
2019-03-31T08:31:07.520Z,11.40
2019-03-31T08:33:39.451Z,12.25
2019-03-31T08:36:09.897Z,17.25
2019-03-31T08:38:41.347Z,11.25
2019-03-31T08:41:11.775Z,13.88
2019-03-31T08:43:42.201Z,13.08
2019-03-31T08:46:12.525Z,11.10
2019-03-31T08:48:43.050Z,15.65
2019-03-31T08:51:13.581Z,9.45
2019-03-31T08:53:44.005Z,10.90
2019-03-31T08:56:14.536Z,14.15
2019-03-31T08:58:44.855Z,11.20
2019-03-31T09:01:16.818Z,10.65
2019-03-31T09:03:47.346Z,22.02
2019-03-31T09:06:17.463Z,12.18
2019-03-31T09:08:47.889Z,12.18
2019-03-31T09:11:19.645Z,14.07
2019-03-31T09:13:50.071Z,9.48
2019-03-31T09:16:20.599Z,13.50
2019-03-31T09:18:51.437Z,15.68
2019-03-31T09:21:21.757Z,15.18
2019-03-31T09:23:52.182Z,14.23
2019-03-31T09:26:22.407Z,13.58
2019-03-31T09:28:54.059Z,18.95
2019-03-31T09:31:24.689Z,17.50
2019-03-31T09:33:55.220Z,13.65
2019-03-31T09:36:26.649Z,18.48
2019-03-31T09:38:57.195Z,19.35
2019-03-31T09:41:27.722Z,22.40
2019-03-31T09:43:58.557Z,15.85
2019-03-31T09:46:30.008Z,15.10
2019-03-31T09:49:00.412Z,16.45
2019-03-31T09:51:30.857Z,15.85
2019-03-31T09:54:01.498Z,16.75
2019-03-31T09:56:32.017Z,14.18
2019-03-31T09:59:02.239Z,19.07
2019-03-31T10:01:32.870Z,13.00
2019-03-31T10:04:03.296Z,11.15
2019-03-31T10:06:34.097Z,14.33
2019-03-31T10:09:06.254Z,12.73
2019-03-31T10:11:36.520Z,8.38
2019-03-31T10:14:06.918Z,7.95
2019-03-31T10:16:37.673Z,11.38
2019-03-31T10:19:09.739Z,9.53
2019-03-31T10:21:39.956Z,9.03
2019-03-31T10:24:10.129Z,9.45
2019-03-31T10:26:40.607Z,8.88
2019-03-31T10:29:11.031Z,11.88
2019-03-31T10:31:41.331Z,6.70
2019-03-31T10:34:11.788Z,8.50
2019-03-31T10:36:44.756Z,8.70
2019-03-31T10:39:14.271Z,10.28
2019-03-31T10:41:44.438Z,6.80
2019-03-31T10:44:14.477Z,7.47
2019-03-31T10:46:44.776Z,7.33
2019-03-31T10:49:15.154Z,7.25
2019-03-31T10:51:45.784Z,11.78
2019-03-31T10:54:16.317Z,8.70
2019-03-31T10:56:46.840Z,8.78
2019-03-31T10:59:17.266Z,7.55
2019-03-31T11:01:48.305Z,6.95
2019-03-31T11:04:18.681Z,13.43
2019-03-31T11:06:59.005Z,6.92
2019-03-31T11:09:21.323Z,6.47
2019-03-31T11:11:51.754Z,7.85
2019-03-31T11:14:22.064Z,3.22
2019-03-31T11:16:52.396Z,6.45
2019-03-31T11:19:22.718Z,3.77
2019-03-31T11:21:54.783Z,1.80
2019-03-31T11:24:25.312Z,3.37
2019-03-31T11:26:55.843Z,3.65
2019-03-31T11:29:26.265Z,4.20
2019-03-31T11:31:56.705Z,2.90
2019-03-31T11:34:27.116Z,6.03
2019-03-31T11:36:57.745Z,4.97
2019-03-31T11:39:28.376Z,6.25
2019-03-31T11:41:59.210Z,3.92
2019-03-31T11:44:32.377Z,9.88
2019-03-31T11:47:03.037Z,7.15
2019-03-31T11:49:33.663Z,7.37
2019-03-31T11:52:04.191Z,4.33
2019-03-31T11:54:34.620Z,5.55
2019-03-31T11:57:05.146Z,4.90
2019-03-31T11:59:35.672Z,4.00
2019-03-31T12:02:06.442Z,4.05
2019-03-31T12:04:38.468Z,8.40
2019-03-31T12:07:09.100Z,8.30
2019-03-31T12:09:39.628Z,10.48
2019-03-31T12:12:11.701Z,3.90
2019-03-31T12:14:43.761Z,5.03
2019-03-31T12:17:15.922Z,5.08
2019-03-31T12:19:48.817Z,6.75
2019-03-31T12:22:18.721Z,6.90
2019-03-31T12:24:49.349Z,20.02
2019-03-31T12:27:19.882Z,7.78
2019-03-31T12:29:50.508Z,7.50
2019-03-31T12:32:21.449Z,5.15
2019-03-31T12:34:51.977Z,5.20
2019-03-31T12:37:22.706Z,7.40
2019-03-31T12:39:53.951Z,10.03
2019-03-31T12:42:24.479Z,10.32
2019-03-31T12:44:55.108Z,6.75
2019-03-31T12:47:25.637Z,5.40
2019-03-31T12:49:56.268Z,6.37
2019-03-31T12:52:28.128Z,8.55
2019-03-31T12:54:58.659Z,6.80
2019-03-31T12:57:29.797Z,7.53
2019-03-31T13:00:01.966Z,8.53
2019-03-31T13:02:32.737Z,7.05
2019-03-31T13:05:06.911Z,7.47
2019-03-31T13:07:37.361Z,5.67
2019-03-31T13:10:07.989Z,7.10
2019-03-31T13:12:38.700Z,7.00
2019-03-31T13:15:09.333Z,5.90
2019-03-31T13:17:39.859Z,6.45
2019-03-31T13:20:10.625Z,6.62
2019-03-31T13:22:41.325Z,7.05
2019-03-31T13:25:12.100Z,8.30
2019-03-31T13:27:42.689Z,7.67
2019-03-31T13:30:16.550Z,5.90
2019-03-31T13:32:47.227Z,5.12
2019-03-31T13:35:17.753Z,4.45
2019-03-31T13:37:48.384Z,6.20
2019-03-31T13:40:18.918Z,3.90
2019-03-31T13:42:49.443Z,3.98
2019-03-31T13:45:20.509Z,5.37
2019-03-31T13:47:51.010Z,3.98
2019-03-31T13:50:22.667Z,4.25
2019-03-31T13:52:53.301Z,6.17
2019-03-31T13:55:24.131Z,2.58
2019-03-31T13:57:55.286Z,5.28
2019-03-31T14:00:43.899Z,7.22
2019-03-31T14:03:16.140Z,4.92
2019-03-31T14:05:46.864Z,4.70
2019-03-31T14:08:25.438Z,6.03
2019-03-31T14:10:51.155Z,5.58
2019-03-31T14:13:22.934Z,5.97
2019-03-31T14:15:54.567Z,5.28
2019-03-31T14:18:26.324Z,6.45
2019-03-31T14:20:59.822Z,8.68
2019-03-31T14:23:31.991Z,4.55
2019-03-31T14:26:02.619Z,5.15
2019-03-31T14:28:33.249Z,7.92
2019-03-31T14:31:03.834Z,6.50
2019-03-31T14:33:34.716Z,7.42
2019-03-31T14:36:06.629Z,7.85
2019-03-31T14:38:40.377Z,6.15
2019-03-31T14:41:09.535Z,7.17
2019-03-31T14:43:40.309Z,9.18
2019-03-31T14:46:11.040Z,5.17
2019-03-31T14:48:41.775Z,6.70
2019-03-31T14:51:12.507Z,5.78
2019-03-31T14:53:44.576Z,4.22
2019-03-31T14:56:15.339Z,4.22
2019-03-31T14:58:46.038Z,6.12
2019-03-31T15:01:16.673Z,10.03
2019-03-31T15:03:50.370Z,7.65
2019-03-31T15:06:22.228Z,5.90
2019-03-31T15:08:54.553Z,4.12
2019-03-31T15:11:26.256Z,3.72
2019-03-31T15:13:56.856Z,8.85
2019-03-31T15:16:27.514Z,5.15
2019-03-31T15:18:58.045Z,7.50
2019-03-31T15:21:30.209Z,3.60
2019-03-31T15:24:00.840Z,5.45
2019-03-31T15:26:31.471Z,6.42
2019-03-31T15:29:02.137Z,5.05
2019-03-31T15:31:32.834Z,5.25
2019-03-31T15:34:03.465Z,9.13
2019-03-31T15:36:35.119Z,5.47
2019-03-31T15:39:10.257Z,8.05
2019-03-31T15:41:40.886Z,7.30
2019-03-31T15:44:12.747Z,9.08
2019-03-31T15:46:45.935Z,6.40
2019-03-31T15:49:18.381Z,10.50
2019-03-31T15:51:50.507Z,6.40
2019-03-31T15:54:24.277Z,9.13
2019-03-31T15:56:55.011Z,10.82
2019-03-31T15:59:26.475Z,5.62
2019-03-31T16:01:58.729Z,8.80
2019-03-31T16:04:31.001Z,10.45
2019-03-31T16:07:01.839Z,6.62
2019-03-31T16:09:32.462Z,4.95
2019-03-31T16:12:04.117Z,6.60
2019-03-31T16:14:35.264Z,9.63
2019-03-31T16:17:07.529Z,6.30
2019-03-31T16:19:38.264Z,9.20
2019-03-31T16:22:09.610Z,9.30
2019-03-31T16:24:46.693Z,9.53
2019-03-31T16:27:17.422Z,5.20
2019-03-31T16:29:49.593Z,7.15
2019-03-31T16:32:20.425Z,5.65
2019-03-31T16:34:55.165Z,8.15
2019-03-31T16:37:27.155Z,6.65
2019-03-31T16:39:58.926Z,8.55
2019-03-31T16:42:30.728Z,9.55
2019-03-31T16:45:03.511Z,6.95
2019-03-31T16:47:34.247Z,6.12
2019-03-31T16:50:07.488Z,8.18
2019-03-31T16:52:39.398Z,8.43
2019-03-31T16:55:11.014Z,7.45
2019-03-31T16:57:42.963Z,7.92
2019-03-31T17:00:14.330Z,9.05
2019-03-31T17:02:46.160Z,6.42
2019-03-31T17:05:22.196Z,6.00
2019-03-31T17:07:49.033Z,9.68
2019-03-31T17:10:19.848Z,9.38
2019-03-31T17:12:52.017Z,6.53
2019-03-31T17:15:22.752Z,3.95
2019-03-31T17:17:54.505Z,5.75
2019-03-31T17:20:26.880Z,5.90
2019-03-31T17:22:59.453Z,9.30
2019-03-31T17:25:31.763Z,8.65
2019-03-31T17:28:03.071Z,6.53
2019-03-31T17:30:35.447Z,8.68
2019-03-31T17:33:07.509Z,6.95
2019-03-31T17:35:41.104Z,7.28
2019-03-31T17:38:12.348Z,5.58
2019-03-31T17:40:44.003Z,5.58
2019-03-31T17:43:17.810Z,9.40
2019-03-31T17:45:49.462Z,5.45
2019-03-31T17:48:21.321Z,10.80
2019-03-31T17:50:53.591Z,9.43
2019-03-31T17:53:24.530Z,6.50
2019-03-31T17:55:57.411Z,8.58
2019-03-31T17:58:30.066Z,7.60
2019-03-31T18:01:00.723Z,7.85
2019-03-31T18:03:32.553Z,6.37
2019-03-31T18:06:05.941Z,8.98
2019-03-31T18:08:42.440Z,8.85
2019-03-31T18:13:43.407Z,6.40
2019-03-31T18:16:18.881Z,4.60
2019-03-31T18:18:49.367Z,6.67
2019-03-31T18:21:21.125Z,9.48
2019-03-31T18:23:52.930Z,10.58
2019-03-31T18:26:27.038Z,10.23
2019-03-31T18:28:58.668Z,9.68
2019-03-31T18:31:32.471Z,5.97
2019-03-31T18:34:09.007Z,11.70
2019-03-31T18:36:42.474Z,8.43
2019-03-31T18:39:14.791Z,13.50
2019-03-31T18:41:47.674Z,7.25
2019-03-31T18:44:19.942Z,9.00
2019-03-31T18:46:53.850Z,10.53
2019-03-31T18:49:24.611Z,8.08
2019-03-31T18:51:56.754Z,9.60
2019-03-31T18:54:29.425Z,9.98
2019-03-31T18:57:13.780Z,9.58
2019-03-31T19:00:04.788Z,6.37
2019-03-31T19:02:37.261Z,10.32
2019-03-31T19:05:09.835Z,7.70
2019-03-31T19:07:42.104Z,7.78
2019-03-31T19:10:33.931Z,2.75
2019-03-31T19:13:09.592Z,8.33
2019-03-31T19:15:52.399Z,4.83
2019-03-31T19:18:42.482Z,5.83
2019-03-31T19:21:23.967Z,6.00
2019-03-31T19:24:05.490Z,7.40
2019-03-31T19:26:54.720Z,6.20
2019-03-31T19:29:43.371Z,4.28
2019-03-31T19:32:24.654Z,6.05
2019-03-31T19:34:59.795Z,4.62
2019-03-31T19:37:35.258Z,7.75
2019-03-31T19:40:14.021Z,6.62
2019-03-31T19:43:04.414Z,4.75
2019-03-31T19:45:39.243Z,3.65
2019-03-31T19:48:20.403Z,7.78
2019-03-31T19:50:59.050Z,7.75
2019-03-31T19:53:50.148Z,4.58
2019-03-31T19:56:25.592Z,6.08
2019-03-31T20:01:51.166Z,4.60
2019-03-31T20:04:40.493Z,7.58
2019-03-31T20:07:27.915Z,6.35
2019-03-31T20:10:14.456Z,7.70
2019-03-31T20:12:54.057Z,4.65
2019-03-31T20:15:30.780Z,9.18
2019-03-31T20:18:14.468Z,7.33
2019-03-31T20:20:59.027Z,22.02
2019-03-31T20:23:47.985Z,8.08
2019-03-31T20:26:24.146Z,9.35
2019-03-31T20:29:07.449Z,11.15
2019-03-31T20:31:55.958Z,6.00
2019-03-31T20:34:28.294Z,6.97
2019-03-31T20:37:16.435Z,9.08
2019-03-31T20:39:56.587Z,7.12
2019-03-31T20:42:23.327Z,7.60
2019-03-31T20:44:54.981Z,10.10
2019-03-31T20:47:26.231Z,11.40
2019-03-31T20:49:56.855Z,7.33
2019-03-31T20:52:30.525Z,8.93
2019-03-31T20:55:15.347Z,5.60
2019-03-31T20:57:35.412Z,7.87
2019-03-31T21:00:09.050Z,8.88
2019-03-31T21:02:40.659Z,8.10
2019-03-31T21:05:11.398Z,4.92
2019-03-31T21:07:43.049Z,5.83
2019-03-31T21:10:13.718Z,9.30
2019-03-31T21:12:44.244Z,9.60
2019-03-31T21:15:14.935Z,7.67
2019-03-31T21:17:45.675Z,5.92
2019-03-31T21:20:16.477Z,7.62
2019-03-31T21:22:47.134Z,5.37
2019-03-31T21:25:17.765Z,10.55
2019-03-31T21:27:48.297Z,7.37
